KPWC

Pine River Regional Airport

Pine River, Minnesota, USA
METAR KPWC 201715Z AUTO 33013G19KT 10SM CLR 00/M10 A3028 RMK AO2
Observed Flight Rules
Oct-20 @ 17:15 UTC (17 minutes ago) Visual Flight Rules
Wind Visibility Clouds
330° at 13 knots
 Gusting to 19 knots
10 miles
  • Clear skies
Temperatures Readings
Current 0°C / 32°F
Dewpoint -10°C / 14°F
Humidity 47%
Altimeter 30.28" Hg
Pressure 1025 hPa
Elevation 395
METAR KPWC 201715Z AUTO 33013G19KT 10SM CLR 00/M10 A3028 RMK AO2
Observed Flight Rules
Oct-20 @ 17:15 UTC
(17 minutes ago)
VFR
Wind Visibility
330° at 13 knots
 Gusting to 19 knots
10 miles
Clouds
  • Clear skies
Temperature Dewpoint
0°C / 32°F -10°C / 14°F
Humidity Altimeter Pressure
47% 30.28" Hg 1025 hPa